Time;durP1;ratioP1;P1;durP2;ratioP2;P2;SDS_P1;SDS_P2;PMS_P1;PMS_P2;Temp;Humidity;BMP_temperature;BMP_pressure;BME280_temperature;BME280_humidity;BME280_pressure;Samples;Min_cycle;Max_cycle;Signal;HPM_P1;HPM_P2
2021/12/15 00:02:22;;;;;;;53.03;27.97;;;;;;;;;;5033632;28;20422;-70
2021/12/15 00:04:50;;;;;;;44.77;26.37;;;;;;;;;;5034189;28;20462;-70
2021/12/15 00:07:17;;;;;;;44.33;26.13;;;;;;;;;;5036547;28;20422;-70
2021/12/15 00:09:43;;;;;;;50.03;27.97;;;;;;;;;;5041957;28;20438;-70
2021/12/15 00:12:08;;;;;;;50.77;28.30;;;;;;;;;;5032063;28;20429;-70
2021/12/15 00:14:50;;;;;;;46.33;27.13;;;;;;;;;;5034860;28;20464;-70
2021/12/15 00:17:24;;;;;;;47.23;26.17;;;;;;;;;;5033921;28;20479;-70
2021/12/15 00:19:53;;;;;;;53.67;28.33;;;;;;;;;;5032923;28;20436;-70
2021/12/15 00:22:18;;;;;;;48.70;26.70;;;;;;;;;;5035156;28;21003;-69
2021/12/15 00:24:44;;;;;;;45.87;26.97;;;;;;;;;;5030847;28;20458;-68
2021/12/15 00:27:09;;;;;;;40.77;27.23;;;;;;;;;;5031917;28;20230;-69
2021/12/15 00:29:35;;;;;;;53.53;28.30;;;;;;;;;;5033953;28;20203;-72
2021/12/15 00:32:04;;;;;;;60.07;28.73;;;;;;;;;;5035491;28;20663;-70
2021/12/15 00:34:34;;;;;;;49.10;28.10;;;;;;;;;;5035033;28;20210;-72
2021/12/15 00:37:02;;;;;;;55.57;29.13;;;;;;;;;;5031399;28;20462;-71
2021/12/15 00:39:29;;;;;;;48.50;27.80;;;;;;;;;;5030439;28;20437;-69
2021/12/15 00:41:55;;;;;;;49.37;26.63;;;;;;;;;;5035126;28;20470;-69
2021/12/15 00:44:20;;;;;;;44.90;27.87;;;;;;;;;;5034444;28;20438;-69
2021/12/15 00:46:48;;;;;;;47.03;27.40;;;;;;;;;;5036165;28;20442;-70
2021/12/15 00:49:14;;;;;;;48.10;27.27;;;;;;;;;;5036537;28;20183;-70
2021/12/15 00:51:40;;;;;;;42.23;26.60;;;;;;;;;;5033828;28;20457;-69
2021/12/15 00:54:05;;;;;;;49.03;25.83;;;;;;;;;;5032782;28;20918;-69
2021/12/15 00:56:31;;;;;;;43.70;25.17;;;;;;;;;;5034532;28;20466;-69
2021/12/15 00:59:00;;;;;;;48.93;26.10;;;;;;;;;;5035292;28;20541;-69
2021/12/15 01:01:26;;;;;;;40.00;26.37;;;;;;;;;;5025680;28;20469;-70
2021/12/15 01:03:52;;;;;;;41.33;25.40;;;;;;;;;;5037740;28;20533;-71
2021/12/15 01:06:20;;;;;;;44.33;26.37;;;;;;;;;;5020196;28;22093;-69
2021/12/15 01:08:53;;;;;;;44.60;24.50;;;;;;;;;;5030998;28;20184;-68
2021/12/15 01:11:31;;;;;;;47.87;25.43;;;;;;;;;;5031829;28;21370;-68
2021/12/15 01:19:54;;;;;;;39.97;24.40;;;;;;;;;;5027421;28;21285;-70
2021/12/15 01:22:23;;;;;;;45.57;25.60;;;;;;;;;;5031204;28;20445;-70
2021/12/15 01:25:03;;;;;;;40.13;24.53;;;;;;;;;;5031319;28;20454;-69
2021/12/15 01:27:28;;;;;;;34.00;24.50;;;;;;;;;;5034076;28;20818;-70
2021/12/15 01:29:54;;;;;;;38.53;22.90;;;;;;;;;;5033656;28;20438;-69
2021/12/15 01:32:20;;;;;;;37.73;24.23;;;;;;;;;;5031098;28;20215;-69
2021/12/15 01:34:45;;;;;;;41.93;22.70;;;;;;;;;;5029460;28;20196;-71
2021/12/15 01:37:12;;;;;;;43.87;23.30;;;;;;;;;;5030017;28;20231;-70
2021/12/15 01:39:37;;;;;;;39.37;22.20;;;;;;;;;;5031479;28;20179;-70
2021/12/15 01:42:03;;;;;;;40.27;23.40;;;;;;;;;;5031966;28;20827;-70
2021/12/15 01:46:56;;;;;;;40.80;24.17;;;;;;;;;;5025093;28;20618;-69
2021/12/15 01:49:25;;;;;;;41.13;22.43;;;;;;;;;;5032322;28;20184;-70
2021/12/15 01:51:50;;;;;;;35.63;24.07;;;;;;;;;;5028678;28;20538;-69
2021/12/15 01:54:16;;;;;;;40.13;22.73;;;;;;;;;;5028713;28;20537;-69
2021/12/15 01:56:43;;;;;;;32.97;21.10;;;;;;;;;;5031701;28;20676;-69
2021/12/15 01:59:10;;;;;;;34.57;21.70;;;;;;;;;;5033915;28;21065;-68
2021/12/15 02:01:35;;;;;;;38.33;23.63;;;;;;;;;;5026799;28;20431;-68
2021/12/15 02:04:01;;;;;;;44.13;24.03;;;;;;;;;;5032730;28;20476;-69
2021/12/15 02:06:26;;;;;;;31.27;22.17;;;;;;;;;;5031707;28;20259;-69
2021/12/15 02:08:52;;;;;;;39.60;23.00;;;;;;;;;;5029029;28;20179;-69
2021/12/15 02:11:18;;;;;;;35.53;21.13;;;;;;;;;;5031840;28;20168;-69
2021/12/15 02:13:43;;;;;;;35.63;22.90;;;;;;;;;;5028729;28;20760;-70
2021/12/15 02:16:09;;;;;;;36.70;22.40;;;;;;;;;;5027062;28;20196;-69
2021/12/15 02:18:36;;;;;;;34.87;22.73;;;;;;;;;;5027053;28;20191;-69
2021/12/15 02:21:09;;;;;;;30.93;21.70;;;;;;;;;;5028684;28;20176;-69
2021/12/15 02:23:43;;;;;;;34.13;22.43;;;;;;;;;;5028698;28;20586;-69
2021/12/15 02:26:14;;;;;;;34.70;21.60;;;;;;;;;;5032295;28;20434;-69
2021/12/15 02:28:40;;;;;;;35.00;21.30;;;;;;;;;;5028827;28;20966;-69
2021/12/15 02:39:06;;;;;;;36.60;23.17;;;;;;;;;;5038505;28;20417;-69
2021/12/15 02:41:32;;;;;;;26.53;20.60;;;;;;;;;;5027115;28;20513;-69
2021/12/15 02:44:09;;;;;;;40.63;23.00;;;;;;;;;;5026729;28;20445;-68
2021/12/15 02:46:35;;;;;;;30.87;20.57;;;;;;;;;;5028189;28;20441;-70
2021/12/15 02:49:01;;;;;;;38.67;21.90;;;;;;;;;;5028160;28;21095;-71
2021/12/15 02:51:27;;;;;;;35.33;23.77;;;;;;;;;;5033608;28;21222;-70
2021/12/15 02:53:56;;;;;;;37.80;22.97;;;;;;;;;;5034128;28;21101;-70
2021/12/15 02:56:21;;;;;;;34.80;23.13;;;;;;;;;;5029785;28;20449;-70
2021/12/15 02:59:01;;;;;;;36.87;21.17;;;;;;;;;;5037819;28;20485;-69
2021/12/15 03:01:38;;;;;;;30.00;20.57;;;;;;;;;;5032580;28;20282;-70
2021/12/15 03:04:27;;;;;;;31.80;21.40;;;;;;;;;;5035837;28;20450;-69
2021/12/15 03:06:58;;;;;;;30.07;20.97;;;;;;;;;;5037185;28;21009;-70
2021/12/15 03:17:51;;;;;;;32.17;22.37;;;;;;;;;;5037075;28;20544;-70
2021/12/15 03:20:19;;;;;;;35.77;22.27;;;;;;;;;;5036873;28;20803;-71
2021/12/15 03:22:45;;;;;;;35.37;24.17;;;;;;;;;;5037402;28;20469;-69
2021/12/15 03:25:10;;;;;;;31.73;21.00;;;;;;;;;;5037605;28;20466;-69
2021/12/15 03:36:01;;;;;;;30.47;22.17;;;;;;;;;;5038686;28;21057;-69
2021/12/15 03:38:27;;;;;;;30.93;22.70;;;;;;;;;;5035790;28;20813;-69
2021/12/15 03:40:53;;;;;;;38.93;22.70;;;;;;;;;;5038533;28;20433;-69
2021/12/15 03:43:21;;;;;;;39.30;24.67;;;;;;;;;;5039757;28;20418;-70
2021/12/15 03:45:50;;;;;;;33.23;22.67;;;;;;;;;;5035606;28;20528;-69
2021/12/15 03:48:17;;;;;;;32.93;23.07;;;;;;;;;;5037425;28;20430;-69
2021/12/15 03:50:43;;;;;;;40.93;24.50;;;;;;;;;;5035871;28;20439;-70
2021/12/15 03:53:11;;;;;;;36.27;24.70;;;;;;;;;;5035971;28;20449;-70
2021/12/15 03:55:40;;;;;;;36.70;24.00;;;;;;;;;;5038631;28;20183;-70
2021/12/15 03:58:10;;;;;;;33.23;24.10;;;;;;;;;;5036655;28;20553;-69
2021/12/15 04:00:48;;;;;;;35.10;25.10;;;;;;;;;;5037632;28;20476;-69
2021/12/15 04:03:27;;;;;;;33.00;24.90;;;;;;;;;;5034952;28;20421;-68
2021/12/15 04:05:53;;;;;;;34.63;25.67;;;;;;;;;;5036796;28;20442;-70
2021/12/15 04:08:23;;;;;;;33.70;25.30;;;;;;;;;;5040271;28;20483;-69
2021/12/15 04:10:51;;;;;;;35.50;24.47;;;;;;;;;;5036246;28;20430;-69
2021/12/15 04:13:16;;;;;;;34.17;24.00;;;;;;;;;;5035060;28;20425;-71
2021/12/15 04:15:46;;;;;;;33.03;24.63;;;;;;;;;;5035463;28;20430;-71
2021/12/15 04:18:12;;;;;;;31.10;23.90;;;;;;;;;;5037494;28;20196;-71
2021/12/15 04:20:38;;;;;;;36.30;25.80;;;;;;;;;;5035068;28;20444;-69
2021/12/15 04:23:05;;;;;;;35.03;25.43;;;;;;;;;;5037614;28;20258;-69
2021/12/15 04:25:33;;;;;;;35.60;25.50;;;;;;;;;;5033980;28;20434;-69
2021/12/15 04:28:28;;;;;;;35.10;25.60;;;;;;;;;;5035884;28;20437;-69
2021/12/15 04:30:54;;;;;;;33.63;25.03;;;;;;;;;;5031025;28;20448;-69
2021/12/15 04:33:19;;;;;;;30.33;24.00;;;;;;;;;;5037611;28;21963;-69
2021/12/15 04:35:45;;;;;;;39.63;25.77;;;;;;;;;;5035250;28;20957;-69
2021/12/15 04:38:11;;;;;;;39.77;25.60;;;;;;;;;;5033354;28;20711;-69
2021/12/15 04:40:37;;;;;;;35.27;25.70;;;;;;;;;;5036170;28;20234;-68
2021/12/15 04:43:02;;;;;;;36.00;26.23;;;;;;;;;;5033770;28;20950;-69
2021/12/15 04:45:29;;;;;;;39.53;24.83;;;;;;;;;;5035253;28;20181;-69
2021/12/15 04:48:10;;;;;;;34.03;25.50;;;;;;;;;;5037431;28;20176;-69
2021/12/15 04:50:36;;;;;;;33.20;26.83;;;;;;;;;;5047470;28;20997;-69
2021/12/15 04:53:03;;;;;;;35.33;26.17;;;;;;;;;;5030730;28;20507;-69
2021/12/15 04:55:29;;;;;;;41.27;26.17;;;;;;;;;;5034859;28;20430;-68
2021/12/15 04:57:56;;;;;;;39.70;28.20;;;;;;;;;;5034049;28;20607;-69
2021/12/15 05:00:23;;;;;;;38.03;27.90;;;;;;;;;;5032828;28;20508;-72
2021/12/15 05:02:51;;;;;;;40.73;27.73;;;;;;;;;;5030371;28;20433;-70
2021/12/15 05:05:16;;;;;;;43.30;29.53;;;;;;;;;;5029560;28;20492;-70
2021/12/15 05:07:41;;;;;;;40.50;27.40;;;;;;;;;;5049418;28;20431;-70
2021/12/15 05:10:08;;;;;;;40.93;28.13;;;;;;;;;;5032325;28;20653;-70
2021/12/15 05:12:34;;;;;;;36.63;26.33;;;;;;;;;;5032672;28;20265;-70
2021/12/15 05:15:02;;;;;;;38.70;27.23;;;;;;;;;;5028489;28;20480;-70
2021/12/15 05:17:30;;;;;;;36.53;27.00;;;;;;;;;;5029587;28;20469;-70
2021/12/15 05:20:00;;;;;;;37.77;27.93;;;;;;;;;;5030492;28;20492;-70
2021/12/15 05:22:29;;;;;;;43.27;28.30;;;;;;;;;;5029995;28;20470;-71
2021/12/15 05:24:54;;;;;;;39.40;27.13;;;;;;;;;;5029676;28;20507;-70
2021/12/15 05:27:19;;;;;;;37.83;26.10;;;;;;;;;;5032915;28;20434;-70
2021/12/15 05:29:46;;;;;;;40.10;27.20;;;;;;;;;;5031811;28;20180;-71
2021/12/15 05:32:11;;;;;;;36.23;26.60;;;;;;;;;;5028306;28;20214;-70
2021/12/15 05:34:38;;;;;;;38.83;26.53;;;;;;;;;;5035144;28;20456;-71
2021/12/15 05:37:04;;;;;;;32.23;24.60;;;;;;;;;;5029859;28;20458;-70
2021/12/15 05:39:30;;;;;;;37.93;25.47;;;;;;;;;;5033709;28;20463;-69
2021/12/15 05:41:56;;;;;;;35.70;25.90;;;;;;;;;;5029721;28;20432;-70
2021/12/15 05:44:22;;;;;;;36.53;25.30;;;;;;;;;;5029077;28;20457;-69
2021/12/15 05:46:47;;;;;;;35.77;25.63;;;;;;;;;;5030882;28;20234;-70
2021/12/15 05:49:13;;;;;;;40.10;25.27;;;;;;;;;;5032200;28;20478;-69
2021/12/15 05:51:38;;;;;;;37.23;25.07;;;;;;;;;;5044817;28;20192;-70
2021/12/15 05:54:05;;;;;;;36.40;26.00;;;;;;;;;;5025830;28;20204;-72
2021/12/15 05:56:33;;;;;;;38.20;26.90;;;;;;;;;;5014711;28;20235;-69
2021/12/15 05:58:59;;;;;;;34.07;24.77;;;;;;;;;;5033629;28;21118;-69
2021/12/15 06:01:28;;;;;;;40.43;27.80;;;;;;;;;;5034503;28;20529;-70
2021/12/15 06:03:54;;;;;;;39.37;27.27;;;;;;;;;;5032892;28;20204;-68
2021/12/15 06:06:22;;;;;;;41.60;26.13;;;;;;;;;;5027834;28;20496;-69
2021/12/15 06:08:48;;;;;;;35.53;25.37;;;;;;;;;;5025365;28;20446;-70
2021/12/15 06:11:13;;;;;;;38.30;24.67;;;;;;;;;;5028446;28;20515;-69
2021/12/15 06:13:39;;;;;;;33.77;25.63;;;;;;;;;;5031126;28;20836;-68
2021/12/15 06:16:07;;;;;;;35.50;26.57;;;;;;;;;;5033263;28;20558;-70
2021/12/15 06:18:33;;;;;;;43.33;27.53;;;;;;;;;;5025523;28;20176;-71
2021/12/15 06:20:58;;;;;;;38.43;25.23;;;;;;;;;;5030944;28;20429;-70
2021/12/15 06:23:24;;;;;;;39.20;24.63;;;;;;;;;;5029983;28;20230;-71
2021/12/15 06:25:51;;;;;;;37.43;26.53;;;;;;;;;;5033055;28;20264;-70
2021/12/15 06:28:17;;;;;;;42.00;26.07;;;;;;;;;;5031882;28;20827;-70
2021/12/15 06:30:51;;;;;;;40.77;26.43;;;;;;;;;;5031249;28;20429;-69
2021/12/15 06:33:18;;;;;;;38.30;26.73;;;;;;;;;;5033217;28;20171;-70
2021/12/15 06:35:52;;;;;;;40.60;26.80;;;;;;;;;;5027474;28;21361;-71
2021/12/15 06:38:22;;;;;;;42.90;27.77;;;;;;;;;;5030712;28;20462;-70
2021/12/15 06:40:53;;;;;;;42.27;26.63;;;;;;;;;;5028268;28;20434;-71
2021/12/15 06:43:19;;;;;;;42.60;27.57;;;;;;;;;;5029400;28;20664;-71
2021/12/15 06:59:36;;;;;;;43.80;26.40;;;;;;;;;;5031162;28;20413;-70
2021/12/15 07:02:05;;;;;;;37.67;26.40;;;;;;;;;;5028091;28;20430;-70
2021/12/15 07:04:37;;;;;;;42.37;28.40;;;;;;;;;;5032064;28;20282;-72
2021/12/15 07:07:04;;;;;;;47.13;29.50;;;;;;;;;;5033055;28;20422;-70
2021/12/15 07:09:31;;;;;;;37.93;27.00;;;;;;;;;;5034542;28;20553;-71
2021/12/15 07:12:05;;;;;;;41.70;27.80;;;;;;;;;;5028308;28;20537;-70
2021/12/15 07:14:33;;;;;;;40.40;27.63;;;;;;;;;;5024902;28;20497;-70
2021/12/15 07:17:14;;;;;;;42.33;28.67;;;;;;;;;;5031081;28;20477;-70
2021/12/15 07:25:04;;;;;;;42.20;28.90;;;;;;;;;;5026992;28;20465;-68
2021/12/15 07:27:30;;;;;;;42.97;27.90;;;;;;;;;;5030214;28;20195;-70
2021/12/15 07:29:55;;;;;;;44.47;29.30;;;;;;;;;;5030281;28;20430;-72
2021/12/15 07:32:26;;;;;;;41.20;26.57;;;;;;;;;;5033780;28;20188;-71
2021/12/15 07:34:52;;;;;;;35.67;26.33;;;;;;;;;;5032160;28;20254;-72
2021/12/15 07:37:17;;;;;;;43.17;29.37;;;;;;;;;;5031809;28;20466;-70
2021/12/15 07:39:54;;;;;;;47.20;30.53;;;;;;;;;;5031260;28;20842;-70
2021/12/15 07:42:28;;;;;;;42.17;27.60;;;;;;;;;;5033470;28;20169;-70
2021/12/15 07:44:54;;;;;;;40.40;27.57;;;;;;;;;;5032690;28;20453;-71
2021/12/15 07:47:19;;;;;;;40.37;26.47;;;;;;;;;;5033656;28;20442;-71
2021/12/15 07:49:48;;;;;;;44.50;26.90;;;;;;;;;;5031215;28;20191;-69
2021/12/15 07:52:13;;;;;;;37.90;26.83;;;;;;;;;;5031672;28;20637;-69
2021/12/15 07:54:39;;;;;;;37.40;25.57;;;;;;;;;;5031624;28;20892;-68
2021/12/15 07:57:16;;;;;;;41.43;26.60;;;;;;;;;;5026177;28;20218;-69
2021/12/15 07:59:41;;;;;;;39.87;27.30;;;;;;;;;;5019757;28;20202;-69
2021/12/15 08:02:07;;;;;;;38.60;25.87;;;;;;;;;;5023311;28;20431;-70
2021/12/15 08:04:32;;;;;;;45.67;28.23;;;;;;;;;;5019106;28;20221;-70
2021/12/15 08:06:58;;;;;;;45.37;28.23;;;;;;;;;;5028630;28;20325;-69
2021/12/15 08:09:23;;;;;;;50.67;26.77;;;;;;;;;;5029652;28;20265;-69
2021/12/15 08:11:49;;;;;;;34.80;25.73;;;;;;;;;;5031280;28;20317;-69
2021/12/15 08:14:15;;;;;;;35.90;25.80;;;;;;;;;;5031384;28;20998;-68
2021/12/15 08:16:41;;;;;;;35.10;26.83;;;;;;;;;;5020898;28;20470;-70
2021/12/15 08:19:07;;;;;;;34.57;26.37;;;;;;;;;;5024105;28;20184;-68
2021/12/15 08:21:33;;;;;;;39.47;25.23;;;;;;;;;;5020665;28;20441;-69
2021/12/15 08:24:01;;;;;;;39.93;25.93;;;;;;;;;;5026787;28;20487;-69
2021/12/15 08:26:27;;;;;;;40.13;25.43;;;;;;;;;;5023366;28;20183;-69
2021/12/15 08:28:53;;;;;;;42.30;27.17;;;;;;;;;;5034112;28;20796;-69
2021/12/15 08:31:19;;;;;;;36.10;25.30;;;;;;;;;;5021344;28;20573;-69
2021/12/15 08:33:44;;;;;;;37.80;25.23;;;;;;;;;;5030500;28;20454;-69
2021/12/15 08:36:12;;;;;;;32.53;24.30;;;;;;;;;;5025134;28;20195;-69
2021/12/15 08:38:38;;;;;;;34.00;23.90;;;;;;;;;;5029811;28;20251;-69
2021/12/15 08:41:06;;;;;;;34.50;23.50;;;;;;;;;;5025059;28;20462;-69
2021/12/15 08:43:41;;;;;;;32.83;22.37;;;;;;;;;;5027716;28;20446;-69
2021/12/15 08:46:08;;;;;;;33.10;21.43;;;;;;;;;;5028655;28;20510;-69
2021/12/15 08:48:35;;;;;;;31.30;23.37;;;;;;;;;;5029915;28;20988;-70
2021/12/15 08:51:01;;;;;;;30.87;20.60;;;;;;;;;;5023027;28;20775;-69
2021/12/15 08:53:29;;;;;;;30.77;21.00;;;;;;;;;;5026028;28;20481;-69
2021/12/15 08:55:55;;;;;;;31.57;22.20;;;;;;;;;;5026981;28;20172;-69
2021/12/15 08:58:21;;;;;;;30.90;21.40;;;;;;;;;;5028137;28;21167;-70
2021/12/15 09:00:47;;;;;;;23.60;18.60;;;;;;;;;;5028800;28;20263;-69
2021/12/15 09:03:14;;;;;;;29.47;21.63;;;;;;;;;;5025423;28;20732;-68
2021/12/15 09:05:40;;;;;;;32.50;21.47;;;;;;;;;;5032588;28;20801;-68
2021/12/15 09:08:06;;;;;;;29.53;18.97;;;;;;;;;;5029608;28;20686;-68
2021/12/15 09:10:34;;;;;;;29.03;19.30;;;;;;;;;;5028946;28;20435;-68
2021/12/15 09:13:00;;;;;;;29.23;18.30;;;;;;;;;;5031066;28;20498;-68
2021/12/15 09:15:25;;;;;;;21.60;16.07;;;;;;;;;;5029955;28;20442;-68
2021/12/15 09:17:54;;;;;;;20.27;15.27;;;;;;;;;;5027802;28;20239;-68
2021/12/15 09:20:21;;;;;;;23.50;16.90;;;;;;;;;;5032020;28;20176;-69
2021/12/15 09:22:47;;;;;;;27.67;15.23;;;;;;;;;;5031128;28;20441;-69
2021/12/15 09:25:13;;;;;;;18.20;13.67;;;;;;;;;;5028607;28;20458;-70
2021/12/15 09:27:39;;;;;;;22.73;14.07;;;;;;;;;;5025335;28;20918;-69
2021/12/15 09:30:06;;;;;;;18.13;13.10;;;;;;;;;;5029289;28;20446;-68
2021/12/15 09:32:31;;;;;;;18.30;11.67;;;;;;;;;;5027035;28;20435;-69
2021/12/15 09:34:56;;;;;;;19.00;11.10;;;;;;;;;;5030820;28;20524;-69
2021/12/15 09:37:22;;;;;;;21.90;12.10;;;;;;;;;;5027974;28;20199;-69
2021/12/15 09:39:47;;;;;;;21.40;10.90;;;;;;;;;;5029286;28;20549;-70
2021/12/15 09:42:17;;;;;;;17.30;10.30;;;;;;;;;;5025245;28;20222;-68
2021/12/15 09:44:44;;;;;;;19.27;10.60;;;;;;;;;;5027256;28;20727;-68
2021/12/15 09:47:17;;;;;;;17.33;9.93;;;;;;;;;;5025557;28;20453;-68
2021/12/15 10:03:17;;;;;;;17.03;10.33;;;;;;;;;;5021414;28;20476;-68
2021/12/15 10:05:52;;;;;;;15.60;9.50;;;;;;;;;;5021623;28;20473;-68
2021/12/15 10:19:22;;;;;;;11.87;9.13;;;;;;;;;;5026654;28;20825;-69
2021/12/15 10:21:57;;;;;;;22.23;11.67;;;;;;;;;;5019201;28;20427;-69
2021/12/15 10:24:36;;;;;;;18.13;10.53;;;;;;;;;;5027567;28;20224;-69
2021/12/15 10:27:05;;;;;;;17.90;11.37;;;;;;;;;;5025138;28;20986;-69
2021/12/15 10:29:30;;;;;;;18.20;11.00;;;;;;;;;;5027349;28;20474;-69
2021/12/15 10:32:05;;;;;;;18.70;11.13;;;;;;;;;;5021088;28;20439;-70
2021/12/15 10:34:31;;;;;;;17.27;10.07;;;;;;;;;;5027765;28;20206;-69
2021/12/15 10:36:56;;;;;;;22.07;10.57;;;;;;;;;;5023318;28;20462;-70
2021/12/15 10:39:22;;;;;;;16.23;11.57;;;;;;;;;;5020062;28;21135;-69
2021/12/15 10:41:51;;;;;;;15.50;10.40;;;;;;;;;;5022604;28;20229;-70
2021/12/15 10:44:21;;;;;;;16.73;9.53;;;;;;;;;;5029876;28;20369;-70
2021/12/15 10:46:54;;;;;;;15.87;9.03;;;;;;;;;;5022020;28;20438;-68
2021/12/15 10:49:30;;;;;;;17.70;10.23;;;;;;;;;;5026227;28;20479;-67
2021/12/15 10:51:59;;;;;;;14.30;9.43;;;;;;;;;;5025950;28;20508;-67
2021/12/15 10:54:45;;;;;;;12.67;7.57;;;;;;;;;;5024767;28;20474;-67
2021/12/15 10:57:13;;;;;;;11.70;7.13;;;;;;;;;;5041117;28;20472;-69
2021/12/15 10:59:42;;;;;;;15.60;7.70;;;;;;;;;;5028194;28;20623;-70
2021/12/15 11:02:08;;;;;;;11.93;7.67;;;;;;;;;;5026707;28;20470;-70
2021/12/15 11:04:39;;;;;;;10.83;6.93;;;;;;;;;;5025514;28;20722;-69
2021/12/15 11:07:14;;;;;;;9.20;6.93;;;;;;;;;;5020672;28;20518;-69
2021/12/15 11:09:42;;;;;;;8.37;5.93;;;;;;;;;;5024625;28;21263;-69
2021/12/15 11:12:17;;;;;;;14.20;6.93;;;;;;;;;;5021030;28;20441;-69
2021/12/15 11:14:44;;;;;;;13.53;6.13;;;;;;;;;;5024991;28;20454;-69
2021/12/15 11:17:09;;;;;;;11.37;6.33;;;;;;;;;;5025500;28;20465;-69
2021/12/15 11:19:45;;;;;;;12.40;6.17;;;;;;;;;;5025773;28;20840;-69
2021/12/15 11:22:29;;;;;;;10.23;5.73;;;;;;;;;;5024918;28;20168;-69
2021/12/15 11:24:54;;;;;;;9.87;6.33;;;;;;;;;;5042003;28;20827;-68
2021/12/15 11:27:20;;;;;;;13.00;5.97;;;;;;;;;;5023666;28;20462;-69
2021/12/15 11:29:45;;;;;;;7.60;5.60;;;;;;;;;;5026253;28;20607;-69
2021/12/15 11:32:29;;;;;;;7.77;5.00;;;;;;;;;;5023270;28;20188;-69
2021/12/15 11:35:24;;;;;;;10.87;5.77;;;;;;;;;;5026231;28;20372;-69
2021/12/15 11:37:52;;;;;;;6.37;5.43;;;;;;;;;;5018754;28;20505;-69
2021/12/15 11:40:23;;;;;;;13.37;7.17;;;;;;;;;;5026048;28;20427;-69
2021/12/15 11:42:48;;;;;;;10.20;6.40;;;;;;;;;;5022512;28;20431;-68
2021/12/15 11:45:14;;;;;;;9.37;5.93;;;;;;;;;;5024319;28;20469;-69
2021/12/15 11:47:39;;;;;;;9.67;6.43;;;;;;;;;;5024731;28;20254;-68
2021/12/15 11:50:10;;;;;;;9.23;5.73;;;;;;;;;;5022631;28;20190;-68
2021/12/15 11:52:49;;;;;;;9.87;6.23;;;;;;;;;;5026086;28;20198;-68
2021/12/15 11:55:21;;;;;;;13.70;6.10;;;;;;;;;;5028863;28;20464;-69
2021/12/15 11:57:47;;;;;;;9.63;6.20;;;;;;;;;;5025997;28;20469;-69
2021/12/15 12:00:15;;;;;;;13.60;7.17;;;;;;;;;;5025699;28;20437;-69
2021/12/15 12:02:42;;;;;;;9.23;5.87;;;;;;;;;;5028723;28;20211;-69
2021/12/15 12:05:09;;;;;;;12.17;6.03;;;;;;;;;;5027479;28;20530;-69
2021/12/15 12:07:38;;;;;;;12.30;7.27;;;;;;;;;;5024188;28;20431;-68
2021/12/15 12:10:03;;;;;;;8.10;6.43;;;;;;;;;;5023571;28;20489;-68
2021/12/15 12:12:35;;;;;;;9.30;6.70;;;;;;;;;;5025914;28;20437;-70
2021/12/15 12:15:00;;;;;;;8.70;6.17;;;;;;;;;;5030869;28;20215;-69
2021/12/15 12:17:28;;;;;;;9.77;6.73;;;;;;;;;;5029971;28;20477;-68
2021/12/15 12:19:57;;;;;;;11.47;6.67;;;;;;;;;;5026724;28;20435;-68
2021/12/15 12:22:25;;;;;;;11.20;7.50;;;;;;;;;;5027653;28;20430;-69
2021/12/15 12:24:52;;;;;;;11.77;7.13;;;;;;;;;;5041481;28;20512;-69
2021/12/15 12:27:18;;;;;;;12.70;7.80;;;;;;;;;;5030403;28;20895;-69
2021/12/15 12:29:44;;;;;;;16.47;8.20;;;;;;;;;;5028200;28;20488;-71
2021/12/15 12:32:11;;;;;;;14.10;7.30;;;;;;;;;;5027539;28;20465;-70
2021/12/15 12:34:40;;;;;;;11.50;6.57;;;;;;;;;;5022061;28;20214;-69
2021/12/15 12:37:06;;;;;;;10.57;6.70;;;;;;;;;;5026014;28;20573;-69
2021/12/15 12:39:33;;;;;;;10.77;5.90;;;;;;;;;;5029589;28;20522;-71
2021/12/15 12:41:59;;;;;;;7.97;4.40;;;;;;;;;;5026044;28;20184;-74
2021/12/15 12:44:32;;;;;;;9.80;4.47;;;;;;;;;;5021725;28;20963;-72
2021/12/15 12:47:04;;;;;;;10.23;4.20;;;;;;;;;;5030137;28;20434;-71
2021/12/15 12:50:18;;;;;;;7.90;4.20;;;;;;;;;;5026393;28;20445;-70
2021/12/15 13:01:13;;;;;;;7.83;3.80;;;;;;;;;;5023338;28;20438;-69
2021/12/15 13:03:48;;;;;;;6.83;3.80;;;;;;;;;;5025985;28;20454;-70
2021/12/15 13:06:22;;;;;;;7.43;4.03;;;;;;;;;;5022268;28;20731;-70
2021/12/15 13:08:49;;;;;;;11.67;4.30;;;;;;;;;;5029415;28;20443;-69
2021/12/15 13:11:22;;;;;;;7.90;4.40;;;;;;;;;;5020781;28;20501;-70
2021/12/15 13:13:59;;;;;;;9.77;4.67;;;;;;;;;;5022129;28;20459;-69
2021/12/15 13:16:24;;;;;;;13.93;5.00;;;;;;;;;;5018069;28;20960;-70
2021/12/15 13:18:54;;;;;;;7.90;4.70;;;;;;;;;;5026203;28;20462;-69
2021/12/15 13:21:22;;;;;;;8.30;5.00;;;;;;;;;;5025206;28;20179;-69
2021/12/15 13:23:58;;;;;;;9.63;5.63;;;;;;;;;;5024365;28;20438;-69
2021/12/15 13:29:27;;;;;;;11.03;4.97;;;;;;;;;;5025803;28;20713;-69
2021/12/15 13:31:54;;;;;;;8.30;5.07;;;;;;;;;;5015293;28;21376;-71
2021/12/15 13:34:33;;;;;;;10.23;4.60;;;;;;;;;;5027219;28;20314;-70
2021/12/15 13:36:59;;;;;;;6.33;3.40;;;;;;;;;;5017806;28;20777;-68
2021/12/15 13:39:24;;;;;;;6.30;3.50;;;;;;;;;;5026621;28;20557;-69
2021/12/15 13:44:43;;;;;;;6.30;3.40;;;;;;;;;;5022570;28;20912;-69
2021/12/15 13:47:09;;;;;;;8.33;3.00;;;;;;;;;;5021885;28;20442;-70
2021/12/15 13:49:54;;;;;;;8.90;3.53;;;;;;;;;;5022473;28;20789;-69
2021/12/15 13:52:19;;;;;;;5.63;2.77;;;;;;;;;;5022380;28;20435;-71
2021/12/15 13:54:44;;;;;;;7.77;3.27;;;;;;;;;;5019967;28;21334;-69
2021/12/15 13:57:13;;;;;;;5.20;2.20;;;;;;;;;;5021665;28;20204;-71
2021/12/15 13:59:43;;;;;;;7.50;2.77;;;;;;;;;;5024009;28;20180;-70
2021/12/15 14:02:11;;;;;;;4.90;2.30;;;;;;;;;;5037984;28;20454;-69
2021/12/15 14:04:41;;;;;;;4.50;1.70;;;;;;;;;;5024285;28;21177;-69
2021/12/15 14:07:25;;;;;;;4.43;1.40;;;;;;;;;;5024285;28;20525;-69
2021/12/15 14:09:51;;;;;;;3.63;1.40;;;;;;;;;;5024015;28;20439;-69
2021/12/15 14:12:36;;;;;;;4.90;1.83;;;;;;;;;;5025891;28;20808;-71
2021/12/15 14:15:02;;;;;;;2.50;1.40;;;;;;;;;;5024792;28;20192;-69
2021/12/15 14:17:27;;;;;;;3.43;1.33;;;;;;;;;;5024245;28;20470;-70
2021/12/15 14:19:52;;;;;;;4.07;1.40;;;;;;;;;;5024569;28;20433;-70
2021/12/15 14:22:19;;;;;;;2.83;1.17;;;;;;;;;;5024721;28;20176;-69
2021/12/15 14:24:44;;;;;;;3.23;1.47;;;;;;;;;;5028030;28;20200;-69
2021/12/15 14:27:10;;;;;;;6.30;1.40;;;;;;;;;;5024267;28;20440;-70
2021/12/15 14:29:35;;;;;;;5.20;1.73;;;;;;;;;;5025257;28;20348;-70
2021/12/15 14:32:02;;;;;;;3.80;1.30;;;;;;;;;;5022165;28;20181;-70
2021/12/15 14:34:30;;;;;;;3.50;1.30;;;;;;;;;;5023768;28;20895;-69
2021/12/15 14:36:59;;;;;;;6.87;1.43;;;;;;;;;;5025262;28;20454;-71
2021/12/15 14:39:26;;;;;;;9.60;1.90;;;;;;;;;;5025375;28;20521;-69
2021/12/15 14:41:54;;;;;;;10.20;1.70;;;;;;;;;;5024318;28;20423;-69
2021/12/15 14:44:21;;;;;;;3.90;2.20;;;;;;;;;;5024313;28;20630;-69
2021/12/15 14:46:51;;;;;;;8.20;1.70;;;;;;;;;;5020602;28;21379;-69
2021/12/15 14:49:23;;;;;;;5.43;1.70;;;;;;;;;;5022067;28;20647;-69
2021/12/15 14:51:50;;;;;;;4.10;1.67;;;;;;;;;;5034560;28;20494;-69
2021/12/15 14:54:16;;;;;;;5.70;1.87;;;;;;;;;;5022325;28;21111;-68
2021/12/15 14:56:44;;;;;;;2.10;1.40;;;;;;;;;;5022053;28;20477;-69
2021/12/15 14:59:12;;;;;;;6.03;1.70;;;;;;;;;;5020879;28;21183;-69
2021/12/15 15:01:37;;;;;;;9.17;1.80;;;;;;;;;;5021457;28;20468;-68
2021/12/15 15:04:04;;;;;;;9.83;2.03;;;;;;;;;;5024499;28;20559;-70
2021/12/15 15:06:30;;;;;;;4.43;2.03;;;;;;;;;;5024280;28;20180;-69
2021/12/15 15:09:36;;;;;;;3.10;1.60;;;;;;;;;;5027944;28;20438;-69
2021/12/15 15:12:14;;;;;;;8.83;1.80;;;;;;;;;;4992617;28;20442;-70
2021/12/15 15:15:05;;;;;;;3.03;1.73;;;;;;;;;;5024463;28;20457;-69
2021/12/15 15:17:40;;;;;;;4.20;1.93;;;;;;;;;;5024028;28;20489;-69
2021/12/15 15:20:11;;;;;;;4.63;1.83;;;;;;;;;;5024239;28;20579;-69
2021/12/15 15:22:36;;;;;;;3.73;1.27;;;;;;;;;;5017131;28;20442;-68
2021/12/15 15:25:04;;;;;;;2.33;1.57;;;;;;;;;;5023348;28;20829;-69
2021/12/15 15:27:35;;;;;;;3.93;2.00;;;;;;;;;;5023221;28;20191;-68
2021/12/15 15:30:02;;;;;;;5.13;1.63;;;;;;;;;;5045670;28;20451;-69
2021/12/15 15:32:30;;;;;;;2.57;1.53;;;;;;;;;;5028856;28;20437;-69
2021/12/15 15:34:58;;;;;;;2.73;1.37;;;;;;;;;;5032935;28;20469;-70
2021/12/15 15:37:25;;;;;;;2.33;1.60;;;;;;;;;;5026742;28;20462;-69
2021/12/15 15:40:12;;;;;;;2.80;1.60;;;;;;;;;;5025223;28;20445;-68
2021/12/15 15:42:38;;;;;;;2.70;1.70;;;;;;;;;;5027588;28;20936;-71
2021/12/15 15:45:04;;;;;;;4.20;1.57;;;;;;;;;;5020695;28;20465;-69
2021/12/15 15:47:30;;;;;;;4.63;1.40;;;;;;;;;;5028899;28;20451;-69
2021/12/15 15:49:57;;;;;;;4.57;1.63;;;;;;;;;;5026134;28;20489;-69
2021/12/15 15:52:22;;;;;;;5.50;1.50;;;;;;;;;;5015468;28;20273;-69
2021/12/15 15:54:48;;;;;;;3.17;1.17;;;;;;;;;;5026264;28;20472;-69
2021/12/15 15:57:14;;;;;;;3.07;1.97;;;;;;;;;;5017931;28;20434;-69
2021/12/15 15:59:42;;;;;;;4.57;1.50;;;;;;;;;;5019077;28;20211;-68
2021/12/15 16:02:09;;;;;;;2.33;1.30;;;;;;;;;;5014638;28;20183;-69
2021/12/15 16:04:36;;;;;;;3.93;1.40;;;;;;;;;;5022723;28;20916;-69